createdAt,value
2023-03-05T00:00:10.621Z,-23231.13
2023-03-05T00:02:13.894Z,-23227.94
2023-03-05T00:04:16.645Z,-23230.66
2023-03-05T00:06:19.430Z,-23230.19
2023-03-05T00:08:22.067Z,-23229.69
2023-03-05T00:10:24.705Z,-23229.84
2023-03-05T00:12:27.391Z,-23232.09
2023-03-05T00:14:30.120Z,-23231.13
2023-03-05T00:16:34.700Z,-23235.91
2023-03-05T00:18:38.380Z,-23235.75
2023-03-05T00:20:41.013Z,-23233.69
2023-03-05T00:22:43.804Z,-23234.31
2023-03-05T00:24:46.529Z,-23235.28
2023-03-05T00:26:49.707Z,-23235.75
2023-03-05T00:28:52.737Z,-23234.47
2023-03-05T00:30:55.594Z,-23234.97
2023-03-05T00:32:59.760Z,-23234.97
2023-03-05T00:35:02.421Z,-23235.44
2023-03-05T00:37:05.178Z,-23235.91
2023-03-05T00:39:07.973Z,-23235.44
2023-03-05T00:41:10.662Z,-23237.03
2023-03-05T00:43:13.363Z,-23234.00
2023-03-05T00:45:16.071Z,-23235.28
2023-03-05T00:47:19.230Z,-23232.41
2023-03-05T00:49:23.219Z,-23233.22
2023-03-05T00:51:26.252Z,-23234.97
2023-03-05T00:53:28.898Z,-23232.91
2023-03-05T00:55:31.546Z,-23231.63
2023-03-05T00:57:35.248Z,-23228.41
2023-03-05T00:59:38.037Z,-23228.91
2023-03-05T01:01:41.391Z,-23230.19
2023-03-05T01:03:44.223Z,-23227.16
2023-03-05T01:05:48.232Z,-23223.78
2023-03-05T01:07:53.549Z,-23227.16
2023-03-05T01:09:56.224Z,-23227.00
2023-03-05T01:12:00.002Z,-23226.19
2023-03-05T01:14:02.792Z,-23224.13
2023-03-05T01:16:06.351Z,-23227.16
2023-03-05T01:18:09.102Z,-23225.06
2023-03-05T01:20:14.950Z,-23224.91
2023-03-05T01:22:18.973Z,-23231.47
2023-03-05T01:24:21.739Z,-23226.66
2023-03-05T01:26:24.366Z,-23225.06
2023-03-05T01:28:27.912Z,-23226.66
2023-03-05T01:30:30.653Z,-23227.94
2023-03-05T01:32:34.766Z,-23226.66
2023-03-05T01:34:38.792Z,-23222.84
2023-03-05T01:36:42.094Z,-23225.38
2023-03-05T01:38:48.300Z,-23224.59
2023-03-05T01:40:50.935Z,-23225.06
2023-03-05T01:42:59.480Z,-23224.13
2023-03-05T01:45:07.389Z,-23229.38
2023-03-05T01:47:10.078Z,-23225.88
2023-03-05T01:49:18.656Z,-23226.19
2023-03-05T01:51:25.736Z,-23228.59
2023-03-05T01:53:28.604Z,-23225.06
2023-03-05T01:55:34.419Z,-23227.31
2023-03-05T01:57:41.005Z,-23228.91
2023-03-05T01:59:46.324Z,-23225.22
2023-03-05T02:01:52.874Z,-23228.91
2023-03-05T02:03:55.708Z,-23226.81
2023-03-05T02:05:58.374Z,-23227.63
2023-03-05T02:08:02.231Z,-23227.00
2023-03-05T02:10:16.474Z,-23227.31
2023-03-05T02:12:20.948Z,-23230.50
2023-03-05T02:14:24.393Z,-23230.81
2023-03-05T02:16:27.238Z,-23228.09
2023-03-05T02:18:29.993Z,-23231.63
2023-03-05T02:20:45.400Z,-23231.28
2023-03-05T02:22:49.349Z,-23228.59
2023-03-05T02:24:52.335Z,-23229.06
2023-03-05T02:26:55.242Z,-23230.97
2023-03-05T02:29:00.828Z,-23229.69
2023-03-05T02:31:03.536Z,-23230.97
2023-03-05T02:33:06.493Z,-23230.19
2023-03-05T02:35:09.882Z,-23235.28
2023-03-05T02:37:12.785Z,-23228.75
2023-03-05T02:39:16.812Z,-23229.22
2023-03-05T02:41:19.857Z,-23228.09
2023-03-05T02:43:22.523Z,-23232.41
2023-03-05T02:45:25.224Z,-23228.91
2023-03-05T02:47:28.229Z,-23230.34
2023-03-05T02:49:31.117Z,-23228.59
2023-03-05T02:51:33.771Z,-23231.94
2023-03-05T02:53:36.927Z,-23231.63
2023-03-05T02:55:40.896Z,-23227.63
2023-03-05T02:57:43.583Z,-23231.28
2023-03-05T02:59:47.010Z,-23230.81
2023-03-05T03:01:49.719Z,-23229.84
2023-03-05T03:03:52.476Z,-23228.25
2023-03-05T03:05:55.083Z,-23224.44
2023-03-05T03:07:57.812Z,-23224.13
2023-03-05T03:10:00.444Z,-23224.75
2023-03-05T03:12:04.871Z,-23222.34
2023-03-05T03:14:07.529Z,-23220.28
2023-03-05T03:16:12.533Z,-23218.69
2023-03-05T03:18:15.233Z,-23218.06
2023-03-05T03:20:19.990Z,-23221.56
2023-03-05T03:22:22.685Z,-23221.88
2023-03-05T03:24:25.407Z,-23224.44
2023-03-05T03:26:28.264Z,-23221.56
2023-03-05T03:28:32.242Z,-23223.78
2023-03-05T03:30:34.939Z,-23224.13
2023-03-05T03:32:37.578Z,-23223.78
2023-03-05T03:34:40.315Z,-23221.56
2023-03-05T03:36:43.587Z,-23227.31
2023-03-05T03:38:46.296Z,-23224.44
2023-03-05T03:40:48.877Z,-23227.94
2023-03-05T03:42:52.781Z,-23225.06
2023-03-05T03:44:57.034Z,-23221.88
2023-03-05T03:46:59.656Z,-23225.06
2023-03-05T03:49:02.297Z,-23223.16
2023-03-05T03:51:07.117Z,-23221.88
2023-03-05T03:53:14.040Z,-23221.56
2023-03-05T03:55:16.561Z,-23221.09
2023-03-05T03:57:19.223Z,-23220.94
2023-03-05T03:59:21.859Z,-23217.72
2023-03-05T04:01:25.917Z,-23219.81
2023-03-05T04:03:28.545Z,-23217.72
2023-03-05T04:05:31.348Z,-23217.72
2023-03-05T04:07:33.993Z,-23218.38
2023-03-05T04:09:36.614Z,-23221.56
2023-03-05T04:11:39.594Z,-23224.13
2023-03-05T04:13:42.359Z,-23229.84
2023-03-05T04:15:45.490Z,-23226.19
2023-03-05T04:17:49.552Z,-23226.34
2023-03-05T04:19:52.206Z,-23224.13
2023-03-05T04:21:54.835Z,-23224.13
2023-03-05T04:23:57.601Z,-23228.25
2023-03-05T04:26:00.308Z,-23228.25
2023-03-05T04:28:02.974Z,-23230.50
2023-03-05T04:30:06.738Z,-23226.03
2023-03-05T04:32:09.504Z,-23229.53
2023-03-05T04:34:13.542Z,-23232.72
2023-03-05T04:36:16.228Z,-23230.81
2023-03-05T04:38:18.838Z,-23234.47
2023-03-05T04:40:21.957Z,-23230.19
2023-03-05T04:42:24.890Z,-23227.31
2023-03-05T04:44:27.511Z,-23230.81
2023-03-05T04:46:30.159Z,-23230.81
2023-03-05T04:48:32.857Z,-23233.69
2023-03-05T04:50:36.782Z,-23240.06
2023-03-05T04:52:40.964Z,-23233.03
2023-03-05T04:54:45.227Z,-23235.59
2023-03-05T04:56:47.903Z,-23237.50
2023-03-05T04:58:50.533Z,-23242.31
2023-03-05T05:00:53.137Z,-23237.03
2023-03-05T05:02:55.949Z,-23236.09
2023-03-05T05:04:58.530Z,-23237.34
2023-03-05T05:07:02.769Z,-23238.78
2023-03-05T05:09:05.484Z,-23238.16
2023-03-05T05:11:09.290Z,-23240.38
2023-03-05T05:13:11.921Z,-23240.06
2023-03-05T05:15:15.035Z,-23239.91
2023-03-05T05:17:17.662Z,-23242.63
2023-03-05T05:19:21.599Z,-23240.06
2023-03-05T05:21:25.832Z,-23239.59
2023-03-05T05:23:29.856Z,-23238.16
2023-03-05T05:25:32.513Z,-23239.44
2023-03-05T05:27:35.162Z,-23238.47
2023-03-05T05:29:37.791Z,-23239.28
2023-03-05T05:31:40.469Z,-23238.47
2023-03-05T05:33:42.248Z,-23240.56
2023-03-05T05:35:44.861Z,-23239.44
2023-03-05T05:37:47.481Z,-23242.31
2023-03-05T05:39:51.445Z,-23243.91
2023-03-05T05:41:54.569Z,-23244.22
2023-03-05T05:43:57.214Z,-23243.09
2023-03-05T05:46:01.419Z,-23243.56
2023-03-05T05:48:04.249Z,-23241.03
2023-03-05T05:50:07.788Z,-23239.13
2023-03-05T05:52:10.785Z,-23239.75
2023-03-05T05:54:14.622Z,-23244.69
2023-03-05T05:56:19.540Z,-23240.72
2023-03-05T05:58:22.180Z,-23244.69
2023-03-05T06:00:25.214Z,-23243.41
2023-03-05T06:02:28.055Z,-23244.84
2023-03-05T06:04:30.812Z,-23244.53
2023-03-05T06:06:34.992Z,-23245.19
2023-03-05T06:08:37.633Z,-23251.06
2023-03-05T06:10:40.301Z,-23247.72
2023-03-05T06:12:44.289Z,-23249.16
2023-03-05T06:14:46.938Z,-23248.69
2023-03-05T06:16:49.685Z,-23249.31
2023-03-05T06:18:52.774Z,-23246.13
2023-03-05T06:20:56.258Z,-23245.97
2023-03-05T06:22:58.797Z,-23247.41
2023-03-05T06:25:01.567Z,-23245.50
2023-03-05T06:27:04.762Z,-23248.84
2023-03-05T06:29:08.702Z,-23250.59
2023-03-05T06:31:13.862Z,-23249.31
2023-03-05T06:33:16.604Z,-23247.88
2023-03-05T06:35:19.921Z,-23250.44
2023-03-05T06:37:22.651Z,-23246.78
2023-03-05T06:39:25.212Z,-23249.00
2023-03-05T06:41:29.693Z,-23252.50
2023-03-05T06:43:33.382Z,-23247.88
2023-03-05T06:45:37.386Z,-23252.34
2023-03-05T06:47:40.089Z,-23252.03
2023-03-05T06:49:42.684Z,-23254.09
2023-03-05T06:51:45.364Z,-23251.88
2023-03-05T06:53:49.620Z,-23257.13
2023-03-05T06:55:52.518Z,-23258.25
2023-03-05T06:57:55.189Z,-23253.47
2023-03-05T06:59:58.118Z,-23253.78
2023-03-05T07:02:02.185Z,-23250.59
2023-03-05T07:04:06.722Z,-23253.47
2023-03-05T07:06:11.479Z,-23252.19
2023-03-05T07:08:14.077Z,-23256.00
2023-03-05T07:10:16.744Z,-23257.63
2023-03-05T07:12:19.376Z,-23255.53
2023-03-05T07:14:23.237Z,-23259.84
2023-03-05T07:16:28.997Z,-23255.06
2023-03-05T07:18:32.969Z,-23253.78
2023-03-05T07:20:36.149Z,-23251.56
2023-03-05T07:22:39.125Z,-23253.47
2023-03-05T07:24:41.823Z,-23253.47
2023-03-05T07:26:44.471Z,-23251.88
2023-03-05T07:28:47.784Z,-23256.66
2023-03-05T07:30:57.037Z,-23258.41
2023-03-05T07:32:59.646Z,-23259.22
2023-03-05T07:35:03.797Z,-23259.53
2023-03-05T07:37:06.600Z,-23258.56
2023-03-05T07:39:09.556Z,-23263.34
2023-03-05T07:41:14.255Z,-23264.63
2023-03-05T07:43:17.530Z,-23263.66
2023-03-05T07:45:20.189Z,-23261.28
2023-03-05T07:47:23.257Z,-23262.72
2023-03-05T07:49:25.867Z,-23262.41
2023-03-05T07:51:30.102Z,-23264.94
2023-03-05T07:53:32.884Z,-23258.56
2023-03-05T07:55:35.981Z,-23262.06
2023-03-05T07:57:39.036Z,-23265.59
2023-03-05T07:59:43.040Z,-23269.41
2023-03-05T08:01:46.338Z,-23262.88
2023-03-05T08:03:49.022Z,-23263.50
2023-03-05T08:05:51.692Z,-23269.41
2023-03-05T08:07:55.685Z,-23268.44
2023-03-05T08:09:58.323Z,-23276.59
2023-03-05T08:12:00.960Z,-23266.88
2023-03-05T08:14:04.509Z,-23272.59
2023-03-05T08:16:08.552Z,-23273.22
2023-03-05T08:18:11.238Z,-23272.59
2023-03-05T08:20:14.516Z,-23269.72
2023-03-05T08:22:20.360Z,-23265.59
2023-03-05T08:24:29.351Z,-23261.44
2023-03-05T08:26:34.174Z,-23267.66
2023-03-05T08:28:36.790Z,-23265.91
2023-03-05T08:30:41.759Z,-23272.91
2023-03-05T08:32:44.455Z,-23262.41
2023-03-05T08:34:47.844Z,-23261.75
2023-03-05T08:36:50.582Z,-23268.44
2023-03-05T08:38:53.975Z,-23277.38
2023-03-05T08:40:57.948Z,-23277.38
2023-03-05T08:43:00.951Z,-23268.13
2023-03-05T08:45:03.625Z,-23268.78
2023-03-05T08:47:06.440Z,-23273.06
2023-03-05T08:49:09.065Z,-23276.75
2023-03-05T08:51:14.397Z,-23280.41
2023-03-05T08:53:17.079Z,-23271.16
2023-03-05T08:55:19.901Z,-23272.75
2023-03-05T08:57:23.799Z,-23283.75
2023-03-05T08:59:26.414Z,-23276.09
2023-03-05T09:01:30.531Z,-23280.41
2023-03-05T09:03:33.325Z,-23277.69
2023-03-05T09:05:39.027Z,-23280.25
2023-03-05T09:07:41.821Z,-23289.19
2023-03-05T09:09:44.451Z,-23278.03
2023-03-05T09:11:47.047Z,-23280.72
2023-03-05T09:13:51.054Z,-23280.25
2023-03-05T09:15:57.244Z,-23283.75
2023-03-05T09:18:00.053Z,-23289.31
2023-03-05T09:20:02.966Z,-23290.13
2023-03-05T09:22:05.775Z,-23289.66
2023-03-05T09:24:09.023Z,-23296.50
2023-03-05T09:26:13.303Z,-23288.06
2023-03-05T09:28:16.157Z,-23295.06
2023-03-05T09:30:20.699Z,-23300.63
2023-03-05T09:32:23.285Z,-23304.78
2023-03-05T09:34:26.002Z,-23297.94
2023-03-05T09:36:30.753Z,-23294.28
2023-03-05T09:38:33.744Z,-23283.44
2023-03-05T09:40:44.784Z,-23296.19
2023-03-05T09:43:02.330Z,-23303.19
2023-03-05T09:45:18.952Z,-23296.81
2023-03-05T09:47:38.784Z,-23298.41
2023-03-05T09:49:51.825Z,-23304.94
2023-03-05T09:52:01.302Z,-23291.56
2023-03-05T09:54:07.433Z,-23301.28
2023-03-05T09:56:13.383Z,-23299.53
2023-03-05T09:58:19.572Z,-23301.91
2023-03-05T10:00:31.319Z,-23285.97
2023-03-05T10:02:37.807Z,-23292.69
2023-03-05T10:04:46.484Z,-23305.59
2023-03-05T10:06:53.981Z,-23298.09
2023-03-05T10:08:58.718Z,-23302.56
2023-03-05T10:11:07.449Z,-23306.38
2023-03-05T10:13:17.615Z,-23300.63
2023-03-05T10:15:26.686Z,-23296.81
2023-03-05T10:17:59.838Z,-23286.94
2023-03-05T10:20:23.640Z,-23297.47
2023-03-05T10:22:30.297Z,-23297.13
2023-03-05T10:24:49.251Z,-23293.31
2023-03-05T10:27:00.417Z,-23298.72
2023-03-05T10:29:17.429Z,-23288.22
2023-03-05T10:31:38.061Z,-23284.38
2023-03-05T10:33:52.326Z,-23287.91
2023-03-05T10:36:26.608Z,-23298.88
2023-03-05T10:38:52.131Z,-23307.97
2023-03-05T10:40:56.610Z,-23304.78
2023-03-05T10:43:07.022Z,-23290.75
2023-03-05T10:45:16.694Z,-23291.09
2023-03-05T10:47:25.263Z,-23290.28
2023-03-05T10:49:31.717Z,-23288.06
2023-03-05T10:51:39.166Z,-23303.34
2023-03-05T10:53:51.740Z,-23297.47
2023-03-05T10:55:56.434Z,-23307.00
2023-03-05T10:57:59.163Z,-23299.53
2023-03-05T11:00:17.547Z,-23287.56
2023-03-05T11:02:22.311Z,-23299.03
2023-03-05T11:04:32.145Z,-23297.47
2023-03-05T11:06:39.681Z,-23294.09
2023-03-05T11:08:43.101Z,-23298.88
2023-03-05T11:10:45.740Z,-23300.63
2023-03-05T11:12:48.382Z,-23300.16
2023-03-05T11:15:05.483Z,-23307.50
2023-03-05T11:17:31.218Z,-23310.50
2023-03-05T11:19:35.352Z,-23294.59
2023-03-05T11:21:38.045Z,-23291.41
2023-03-05T11:23:40.609Z,-23298.41
2023-03-05T11:25:54.328Z,-23305.91
2023-03-05T11:27:59.013Z,-23303.50
2023-03-05T11:30:01.922Z,-23309.25
2023-03-05T11:32:17.819Z,-23301.75
2023-03-05T11:34:30.200Z,-23298.41
2023-03-05T11:36:35.853Z,-23302.38
2023-03-05T11:38:48.013Z,-23293.47
2023-03-05T11:40:51.067Z,-23298.72
2023-03-05T11:42:57.013Z,-23299.69
2023-03-05T11:45:00.882Z,-23296.50
2023-03-05T11:47:08.138Z,-23302.56
2023-03-05T11:49:16.660Z,-23300.63
2023-03-05T11:51:24.205Z,-23308.91
2023-03-05T11:53:29.593Z,-23303.81
2023-03-05T11:55:37.386Z,-23297.47
2023-03-05T11:57:47.199Z,-23289.66
2023-03-05T11:59:51.216Z,-23291.25
2023-03-05T12:01:56.328Z,-23283.59
2023-03-05T12:04:00.165Z,-23281.03
2023-03-05T12:06:10.918Z,-23288.53
2023-03-05T12:08:16.535Z,-23289.97
2023-03-05T12:10:23.788Z,-23293.78
2023-03-05T12:12:38.050Z,-23287.56
2023-03-05T12:14:49.342Z,-23278.03
2023-03-05T12:16:59.372Z,-23284.38
2023-03-05T12:19:21.126Z,-23283.13
2023-03-05T12:21:32.885Z,-23284.88
2023-03-05T12:23:50.271Z,-23281.53
2023-03-05T12:25:57.001Z,-23287.56
2023-03-05T12:28:00.104Z,-23295.69
2023-03-05T12:30:04.085Z,-23288.53
2023-03-05T12:32:28.806Z,-23288.06
2023-03-05T12:34:52.231Z,-23290.44
2023-03-05T12:36:55.009Z,-23281.38
2023-03-05T12:38:58.542Z,-23280.25
2023-03-05T12:41:44.295Z,-23288.06
2023-03-05T12:44:25.909Z,-23294.91
2023-03-05T12:46:30.088Z,-23293.94
2023-03-05T12:48:50.521Z,-23296.50
2023-03-05T12:50:59.467Z,-23295.53
2023-03-05T12:53:13.742Z,-23305.09
2023-03-05T12:55:20.207Z,-23300.31
2023-03-05T12:57:26.455Z,-23294.28
2023-03-05T12:59:44.066Z,-23294.91
2023-03-05T13:01:53.448Z,-23304.16
2023-03-05T13:03:59.593Z,-23298.09
2023-03-05T13:06:04.859Z,-23298.41
2023-03-05T13:08:15.865Z,-23301.28
2023-03-05T13:10:23.829Z,-23291.72
2023-03-05T13:12:28.555Z,-23299.84
2023-03-05T13:14:36.290Z,-23302.56
2023-03-05T13:16:41.027Z,-23300.31
2023-03-05T13:18:49.183Z,-23300.47
2023-03-05T13:21:02.410Z,-23299.84
2023-03-05T13:23:26.767Z,-23303.34
2023-03-05T13:25:29.635Z,-23296.19
2023-03-05T13:27:34.025Z,-23300.31
2023-03-05T13:29:36.636Z,-23307.66
2023-03-05T13:31:43.499Z,-23309.09
2023-03-05T13:33:54.207Z,-23291.72
2023-03-05T13:35:57.286Z,-23300.00
2023-03-05T13:38:00.832Z,-23298.72
2023-03-05T13:40:16.081Z,-23295.22
2023-03-05T13:42:20.862Z,-23298.88
2023-03-05T13:44:23.472Z,-23296.03
2023-03-05T13:46:28.460Z,-23296.81
2023-03-05T13:48:31.110Z,-23302.88
2023-03-05T13:50:37.375Z,-23296.97
2023-03-05T13:52:40.209Z,-23302.22
2023-03-05T13:54:43.396Z,-23294.91
2023-03-05T13:56:54.775Z,-23301.28
2023-03-05T13:58:57.981Z,-23307.81
2023-03-05T14:01:05.342Z,-23312.44
2023-03-05T14:03:12.336Z,-23309.56
2023-03-05T14:05:16.514Z,-23305.75
2023-03-05T14:07:30.806Z,-23312.75
2023-03-05T14:09:46.847Z,-23316.25
2023-03-05T14:11:57.957Z,-23294.44
2023-03-05T14:14:07.063Z,-23289.31
2023-03-05T14:16:12.006Z,-23296.03
2023-03-05T14:18:20.518Z,-23303.19
2023-03-05T14:20:27.352Z,-23309.41
2023-03-05T14:22:32.580Z,-23310.84
2023-03-05T14:24:35.299Z,-23312.59
2023-03-05T14:26:42.098Z,-23308.91
2023-03-05T14:28:44.862Z,-23307.66
2023-03-05T14:30:48.378Z,-23313.84
2023-03-05T14:32:52.717Z,-23308.91
2023-03-05T14:34:58.257Z,-23313.69
2023-03-05T14:37:04.519Z,-23307.97
2023-03-05T14:39:08.858Z,-23311.16
2023-03-05T14:41:23.739Z,-23300.00
2023-03-05T14:43:26.388Z,-23299.03
2023-03-05T14:45:31.095Z,-23306.69
2023-03-05T14:47:33.781Z,-23305.75
2023-03-05T14:49:36.468Z,-23300.81
2023-03-05T14:51:41.763Z,-23305.41
2023-03-05T14:53:47.580Z,-23306.38
2023-03-05T14:55:56.585Z,-23306.38
2023-03-05T14:58:04.195Z,-23288.22
2023-03-05T15:00:11.933Z,-23287.91
2023-03-05T15:02:18.806Z,-23289.00
2023-03-05T15:04:21.458Z,-23290.75
2023-03-05T15:06:31.720Z,-23293.00
2023-03-05T15:08:34.622Z,-23289.81
2023-03-05T15:10:37.264Z,-23287.75
2023-03-05T15:12:41.766Z,-23283.13
2023-03-05T15:14:44.839Z,-23283.91
2023-03-05T15:16:48.742Z,-23284.72
2023-03-05T15:18:51.437Z,-23286.47
2023-03-05T15:20:54.759Z,-23277.06
2023-03-05T15:22:57.420Z,-23279.94
2023-03-05T15:25:00.019Z,-23279.28
2023-03-05T15:27:03.162Z,-23280.09
2023-03-05T15:29:07.181Z,-23271.97
2023-03-05T15:31:10.064Z,-23271.66
2023-03-05T15:33:15.682Z,-23272.75
2023-03-05T15:35:18.663Z,-23280.56
2023-03-05T15:37:21.346Z,-23277.06
2023-03-05T15:39:26.262Z,-23272.28
2023-03-05T15:41:28.961Z,-23273.88
2023-03-05T15:43:31.644Z,-23281.84
2023-03-05T15:45:35.657Z,-23279.28
2023-03-05T15:47:38.343Z,-23285.03
2023-03-05T15:49:40.897Z,-23282.31
2023-03-05T15:51:43.498Z,-23283.28
2023-03-05T15:53:46.449Z,-23282.31
2023-03-05T15:55:49.069Z,-23288.69
2023-03-05T15:57:53.692Z,-23290.44
2023-03-05T15:59:56.395Z,-23285.19
2023-03-05T16:02:01.716Z,-23285.81
2023-03-05T16:04:04.542Z,-23275.78
2023-03-05T16:06:08.271Z,-23272.75
2023-03-05T16:08:10.958Z,-23277.38
2023-03-05T16:10:17.562Z,-23284.06
2023-03-05T16:12:23.853Z,-23271.00
2023-03-05T16:14:28.685Z,-23269.09
2023-03-05T16:16:32.454Z,-23277.06
2023-03-05T16:18:39.750Z,-23271.66
2023-03-05T16:20:42.636Z,-23266.88
2023-03-05T16:22:46.341Z,-23266.22
2023-03-05T16:24:48.944Z,-23268.44
2023-03-05T16:26:51.556Z,-23264.63
2023-03-05T16:28:54.496Z,-23264.94
2023-03-05T16:30:59.206Z,-23267.19
2023-03-05T16:33:01.871Z,-23269.56
2023-03-05T16:35:07.036Z,-23276.59
2023-03-05T16:37:09.677Z,-23268.28
2023-03-05T16:39:12.373Z,-23267.19
2023-03-05T16:41:15.826Z,-23270.03
2023-03-05T16:43:18.488Z,-23267.34
2023-03-05T16:45:21.195Z,-23271.00
2023-03-05T16:47:23.806Z,-23271.47
2023-03-05T16:49:26.472Z,-23272.59
2023-03-05T16:51:30.962Z,-23276.25
2023-03-05T16:53:34.825Z,-23271.66
2023-03-05T16:55:39.124Z,-23273.88
2023-03-05T16:57:43.014Z,-23273.41
2023-03-05T16:59:46.505Z,-23273.22
2023-03-05T17:01:49.368Z,-23271.97
2023-03-05T17:03:53.819Z,-23274.03
2023-03-05T17:05:57.317Z,-23277.22
2023-03-05T17:08:02.248Z,-23275.00
2023-03-05T17:10:06.087Z,-23273.22
2023-03-05T17:12:09.882Z,-23270.38
2023-03-05T17:14:13.724Z,-23265.25
2023-03-05T17:16:19.711Z,-23268.63
2023-03-05T17:18:23.584Z,-23270.38
2023-03-05T17:20:26.482Z,-23267.19
2023-03-05T17:22:30.230Z,-23268.28
2023-03-05T17:24:35.241Z,-23268.63
2023-03-05T17:26:38.628Z,-23268.28
2023-03-05T17:28:53.571Z,-23265.75
2023-03-05T17:31:01.355Z,-23264.94
2023-03-05T17:33:04.800Z,-23264.94
2023-03-05T17:35:08.910Z,-23267.19
2023-03-05T17:37:15.262Z,-23265.25
2023-03-05T17:39:23.241Z,-23271.16
2023-03-05T17:41:27.556Z,-23269.41
2023-03-05T17:43:30.436Z,-23266.38
2023-03-05T17:45:35.326Z,-23268.44
2023-03-05T17:47:38.179Z,-23266.88
2023-03-05T17:49:40.946Z,-23268.94
2023-03-05T17:51:43.742Z,-23269.56
2023-03-05T17:53:46.393Z,-23270.03
2023-03-05T17:55:49.038Z,-23265.25
2023-03-05T17:57:53.281Z,-23267.19
2023-03-05T17:59:55.977Z,-23267.81
2023-03-05T18:01:58.612Z,-23267.19
2023-03-05T18:04:02.226Z,-23264.31
2023-03-05T18:06:05.367Z,-23266.06
2023-03-05T18:08:08.224Z,-23266.88
2023-03-05T18:10:12.928Z,-23267.97
2023-03-05T18:12:15.681Z,-23267.81
2023-03-05T18:14:19.748Z,-23266.22
2023-03-05T18:16:23.443Z,-23268.78
2023-03-05T18:18:26.130Z,-23264.16
2023-03-05T18:20:31.460Z,-23263.34
2023-03-05T18:22:34.253Z,-23266.88
2023-03-05T18:24:36.981Z,-23266.22
2023-03-05T18:26:39.734Z,-23265.91
2023-03-05T18:28:42.405Z,-23266.69
2023-03-05T18:30:47.400Z,-23267.81
2023-03-05T18:32:51.307Z,-23264.94
2023-03-05T18:34:54.020Z,-23265.09
2023-03-05T18:36:56.812Z,-23262.56
2023-03-05T18:38:59.497Z,-23263.84
2023-03-05T18:41:04.186Z,-23260.31
2023-03-05T18:43:06.832Z,-23259.84
2023-03-05T18:45:10.730Z,-23261.91
2023-03-05T18:47:14.782Z,-23262.06
2023-03-05T18:49:17.467Z,-23265.25
2023-03-05T18:51:22.223Z,-23263.66
2023-03-05T18:53:24.991Z,-23264.94
2023-03-05T18:55:30.200Z,-23264.94
2023-03-05T18:57:32.924Z,-23260.16
2023-03-05T18:59:35.593Z,-23259.84
2023-03-05T19:01:38.347Z,-23264.00
2023-03-05T19:03:42.448Z,-23264.94
2023-03-05T19:05:45.135Z,-23264.78
2023-03-05T19:07:48.452Z,-23264.47
2023-03-05T19:09:58.130Z,-23264.63
2023-03-05T19:12:02.000Z,-23261.44
2023-03-05T19:14:04.688Z,-23263.34
2023-03-05T19:16:09.424Z,-23258.88
2023-03-05T19:18:13.184Z,-23258.88
2023-03-05T19:20:18.464Z,-23262.72
2023-03-05T19:22:21.375Z,-23263.84
2023-03-05T19:24:25.936Z,-23260.31
2023-03-05T19:26:28.646Z,-23262.56
2023-03-05T19:28:31.286Z,-23262.72
2023-03-05T19:30:33.938Z,-23262.06
2023-03-05T19:32:36.759Z,-23257.94
2023-03-05T19:34:39.659Z,-23260.66
2023-03-05T19:36:43.768Z,-23262.22
2023-03-05T19:38:47.937Z,-23262.41
2023-03-05T19:40:54.168Z,-23261.44
2023-03-05T19:42:57.854Z,-23259.53
2023-03-05T19:45:00.492Z,-23261.59
2023-03-05T19:47:03.221Z,-23262.06
2023-03-05T19:49:05.941Z,-23257.28
2023-03-05T19:51:13.296Z,-23259.03
2023-03-05T19:53:17.348Z,-23257.28
2023-03-05T19:55:20.256Z,-23258.41
2023-03-05T19:57:22.990Z,-23258.56
2023-03-05T19:59:25.964Z,-23261.13
2023-03-05T20:01:29.298Z,-23259.22
2023-03-05T20:03:32.325Z,-23258.88
2023-03-05T20:05:35.412Z,-23260.31
2023-03-05T20:07:38.127Z,-23261.13
2023-03-05T20:09:42.176Z,-23260.47
2023-03-05T20:11:46.049Z,-23261.13
2023-03-05T20:13:49.134Z,-23258.09
2023-03-05T20:15:54.493Z,-23256.50
2023-03-05T20:17:58.006Z,-23254.75
2023-03-05T20:20:00.972Z,-23252.81
2023-03-05T20:22:03.675Z,-23252.81
2023-03-05T20:24:09.899Z,-23249.78
2023-03-05T20:26:14.243Z,-23252.19
2023-03-05T20:28:17.068Z,-23248.03
2023-03-05T20:30:20.269Z,-23252.34
2023-03-05T20:32:23.083Z,-23249.97
2023-03-05T20:34:27.056Z,-23251.06
2023-03-05T20:36:29.782Z,-23252.81
2023-03-05T20:38:33.072Z,-23251.88
2023-03-05T20:40:35.758Z,-23255.22
2023-03-05T20:42:40.173Z,-23252.50
2023-03-05T20:44:43.148Z,-23252.34
2023-03-05T20:46:52.524Z,-23255.69
2023-03-05T20:48:59.075Z,-23253.63
2023-03-05T20:51:12.031Z,-23255.06
2023-03-05T20:53:14.954Z,-23258.25
2023-03-05T20:55:17.582Z,-23259.84
2023-03-05T20:57:20.243Z,-23260.16
2023-03-05T20:59:24.771Z,-23258.88
2023-03-05T21:01:28.919Z,-23256.50
2023-03-05T21:03:31.609Z,-23254.25
2023-03-05T21:05:36.082Z,-23256.00
2023-03-05T21:07:38.798Z,-23256.97
2023-03-05T21:09:41.464Z,-23255.69
2023-03-05T21:11:44.117Z,-23256.97
2023-03-05T21:13:47.062Z,-23255.69
2023-03-05T21:15:51.116Z,-23253.31
2023-03-05T21:17:54.316Z,-23251.22
2023-03-05T21:19:57.008Z,-23247.25
2023-03-05T21:22:00.034Z,-23241.34
2023-03-05T21:24:02.715Z,-23241.03
2023-03-05T21:26:05.571Z,-23243.41
2023-03-05T21:28:09.797Z,-23244.22
2023-03-05T21:30:13.393Z,-23244.53
2023-03-05T21:32:17.578Z,-23244.53
2023-03-05T21:34:20.368Z,-23239.44
2023-03-05T21:36:23.093Z,-23241.34
2023-03-05T21:38:29.791Z,-23241.34
2023-03-05T21:40:33.171Z,-23245.81
2023-03-05T21:42:35.771Z,-23243.91
2023-03-05T21:44:38.697Z,-23245.19
2023-03-05T21:46:42.713Z,-23246.13
2023-03-05T21:48:46.741Z,-23244.53
2023-03-05T21:50:49.924Z,-23246.44
2023-03-05T21:52:52.963Z,-23244.53
2023-03-05T21:54:55.746Z,-23247.25
2023-03-05T21:56:58.384Z,-23242.94
2023-03-05T21:59:03.066Z,-23242.94
2023-03-05T22:01:06.137Z,-23244.53
2023-03-05T22:03:08.888Z,-23242.31
2023-03-05T22:05:15.532Z,-23240.38
2023-03-05T22:07:19.237Z,-23241.03
2023-03-05T22:09:21.894Z,-23240.06
2023-03-05T22:11:24.548Z,-23241.03
2023-03-05T22:13:27.257Z,-23244.22
2023-03-05T22:15:30.166Z,-23241.97
2023-03-05T22:17:32.806Z,-23241.19
2023-03-05T22:19:35.590Z,-23239.75
2023-03-05T22:21:39.639Z,-23237.19
2023-03-05T22:23:42.253Z,-23238.78
2023-03-05T22:25:45.433Z,-23238.00
2023-03-05T22:27:48.066Z,-23238.00
2023-03-05T22:29:50.738Z,-23239.91
2023-03-05T22:31:55.378Z,-23240.88
2023-03-05T22:33:58.287Z,-23241.03
2023-03-05T22:36:01.184Z,-23241.50
2023-03-05T22:38:05.240Z,-23241.34
2023-03-05T22:40:09.276Z,-23242.31
2023-03-05T22:42:11.957Z,-23239.13
2023-03-05T22:44:14.676Z,-23240.38
2023-03-05T22:46:21.006Z,-23237.19
2023-03-05T22:48:23.686Z,-23233.84
2023-03-05T22:50:26.335Z,-23235.28
2023-03-05T22:52:29.393Z,-23236.88
2023-03-05T22:54:33.431Z,-23235.75
2023-03-05T22:56:37.171Z,-23234.66
2023-03-05T22:58:40.025Z,-23235.13
2023-03-05T23:00:42.809Z,-23235.91
2023-03-05T23:02:45.859Z,-23235.59
2023-03-05T23:04:49.956Z,-23237.50
2023-03-05T23:06:52.649Z,-23240.06
2023-03-05T23:08:55.707Z,-23242.78
2023-03-05T23:10:59.765Z,-23242.94
2023-03-05T23:13:02.832Z,-23242.13
2023-03-05T23:15:08.844Z,-23241.03
2023-03-05T23:17:11.572Z,-23244.22
2023-03-05T23:19:14.260Z,-23248.03
2023-03-05T23:21:16.980Z,-23245.19
2023-03-05T23:23:19.659Z,-23243.56
2023-03-05T23:25:23.736Z,-23243.56
2023-03-05T23:27:27.757Z,-23242.78
2023-03-05T23:29:32.973Z,-23245.66
2023-03-05T23:31:35.591Z,-23242.13
2023-03-05T23:33:38.376Z,-23243.56
2023-03-05T23:35:43.181Z,-23243.91
2023-03-05T23:37:46.075Z,-23244.84
2023-03-05T23:39:48.681Z,-23244.38
2023-03-05T23:41:51.312Z,-23243.41
2023-03-05T23:43:55.329Z,-23240.38